createdAt,value
2019-01-24T00:01:56.177Z,18.10
2019-01-24T00:04:59.553Z,17.67
2019-01-24T00:08:02.993Z,19.30
2019-01-24T00:11:06.444Z,18.00
2019-01-24T00:14:29.164Z,18.87
2019-01-24T00:17:32.525Z,18.37
2019-01-24T00:20:35.904Z,18.27
2019-01-24T00:23:39.274Z,18.20
2019-01-24T00:26:42.649Z,18.57
2019-01-24T00:29:46.026Z,19.47
2019-01-24T00:32:49.401Z,18.37
2019-01-24T00:35:52.775Z,17.70
2019-01-24T00:38:56.157Z,18.30
2019-01-24T00:42:14.057Z,18.77
2019-01-24T00:45:07.598Z,18.63
2019-01-24T00:48:10.971Z,18.33
2019-01-24T00:51:14.339Z,19.37
2019-01-24T00:54:17.715Z,19.60
2019-01-24T00:57:21.089Z,19.90
2019-01-24T01:00:26.402Z,20.20
2019-01-24T01:03:29.773Z,19.00
2019-01-24T01:06:33.146Z,19.97
2019-01-24T01:09:36.538Z,21.37
2019-01-24T01:12:39.918Z,20.40
2019-01-24T01:15:43.311Z,19.40
2019-01-24T01:18:46.710Z,22.53
2019-01-24T01:21:50.083Z,21.63
2019-01-24T01:24:53.465Z,20.67
2019-01-24T01:27:56.845Z,19.37
2019-01-24T01:31:00.302Z,21.67
2019-01-24T01:34:04.052Z,21.37
2019-01-24T01:37:07.432Z,21.17
2019-01-24T01:40:13.562Z,22.17
2019-01-24T01:43:16.946Z,20.67
2019-01-24T01:46:20.328Z,20.57
2019-01-24T01:49:23.724Z,23.03
2019-01-24T01:52:27.101Z,21.60
2019-01-24T01:55:30.491Z,22.07
2019-01-24T01:58:33.860Z,21.23
2019-01-24T02:01:37.241Z,22.30
2019-01-24T02:04:42.964Z,22.97
2019-01-24T02:07:45.724Z,22.93
2019-01-24T02:10:49.100Z,23.03
2019-01-24T02:13:54.420Z,20.93
2019-01-24T02:16:57.801Z,21.87
2019-01-24T02:20:01.181Z,22.03
2019-01-24T02:23:04.803Z,21.40
2019-01-24T02:26:08.178Z,22.53
2019-01-24T02:29:11.560Z,20.90
2019-01-24T02:32:14.962Z,21.97
2019-01-24T02:35:18.410Z,22.00
2019-01-24T02:38:21.799Z,22.83
2019-01-24T02:41:25.176Z,22.57
2019-01-24T02:44:28.563Z,22.50
2019-01-24T02:47:31.939Z,22.57
2019-01-24T02:50:35.324Z,22.73
2019-01-24T02:53:38.696Z,22.63
2019-01-24T02:56:42.083Z,21.20
2019-01-24T02:59:45.484Z,22.43
2019-01-24T03:02:48.940Z,20.90
2019-01-24T03:05:52.316Z,22.77
2019-01-24T03:08:55.720Z,19.27
2019-01-24T03:11:59.110Z,22.03
2019-01-24T03:15:02.494Z,20.53
2019-01-24T03:18:06.008Z,21.77
2019-01-24T03:21:09.402Z,19.73
2019-01-24T03:24:12.771Z,20.27
2019-01-24T03:27:16.551Z,19.93
2019-01-24T03:30:22.014Z,21.03
2019-01-24T03:33:25.408Z,19.43
2019-01-24T03:36:28.795Z,21.43
2019-01-24T03:39:32.164Z,20.80
2019-01-24T03:42:35.540Z,22.00
2019-01-24T03:45:39.215Z,22.03
2019-01-24T03:48:42.627Z,22.53
2019-01-24T03:51:46.014Z,22.80
2019-01-24T03:54:49.405Z,23.13
2019-01-24T03:57:52.778Z,23.03
2019-01-24T04:00:56.156Z,22.83
2019-01-24T04:03:59.605Z,23.87
2019-01-24T04:07:02.995Z,22.80
2019-01-24T04:10:09.414Z,24.20
2019-01-24T04:13:12.794Z,23.17
2019-01-24T04:16:16.166Z,23.73
2019-01-24T04:19:19.548Z,23.23
2019-01-24T04:22:22.919Z,23.70
2019-01-24T04:25:26.368Z,23.33
2019-01-24T04:28:31.402Z,24.30
2019-01-24T04:31:34.771Z,24.63
2019-01-24T04:34:38.156Z,24.50
2019-01-24T04:37:41.533Z,24.70
2019-01-24T04:40:44.916Z,24.53
2019-01-24T04:43:48.282Z,23.93
2019-01-24T04:46:51.664Z,24.07
2019-01-24T04:49:55.044Z,24.03
2019-01-24T04:52:58.417Z,24.77
2019-01-24T04:56:01.803Z,23.60
2019-01-24T04:59:05.485Z,24.03
2019-01-24T05:02:08.864Z,25.43
2019-01-24T05:05:12.327Z,23.13
2019-01-24T05:08:16.019Z,23.30
2019-01-24T05:11:19.404Z,25.90
2019-01-24T05:14:22.784Z,23.40
2019-01-24T05:17:26.174Z,22.83
2019-01-24T05:20:29.566Z,23.47
2019-01-24T05:23:32.937Z,23.33
2019-01-24T05:26:36.325Z,25.03
2019-01-24T05:29:39.947Z,24.90
2019-01-24T05:32:43.338Z,24.77
2019-01-24T05:35:46.715Z,23.00
2019-01-24T05:38:50.106Z,24.13
2019-01-24T05:41:53.495Z,25.73
2019-01-24T05:44:56.868Z,24.33
2019-01-24T05:48:00.259Z,25.43
2019-01-24T05:51:03.643Z,24.43
2019-01-24T05:54:07.023Z,26.30
2019-01-24T05:57:10.413Z,25.47
2019-01-24T06:00:18.478Z,25.57
2019-01-24T06:03:21.863Z,25.03
2019-01-24T06:06:25.238Z,25.40
2019-01-24T06:09:28.627Z,23.13
2019-01-24T06:12:32.001Z,24.87
2019-01-24T06:15:35.388Z,22.87
2019-01-24T06:18:38.775Z,24.40
2019-01-24T06:21:42.145Z,25.37
2019-01-24T06:24:45.534Z,25.00
2019-01-24T06:27:48.910Z,26.00
2019-01-24T06:30:52.301Z,25.37
2019-01-24T06:33:55.684Z,24.03
2019-01-24T06:36:59.071Z,24.63
2019-01-24T06:40:02.461Z,24.90
2019-01-24T06:43:05.831Z,25.37
2019-01-24T06:46:09.241Z,24.60
2019-01-24T06:49:12.626Z,24.47
2019-01-24T06:52:16.038Z,24.60
2019-01-24T06:55:59.332Z,24.87
2019-01-24T06:59:02.716Z,23.30
2019-01-24T07:02:06.184Z,24.33
2019-01-24T07:05:09.708Z,26.50
2019-01-24T07:08:13.073Z,24.33
2019-01-24T07:11:16.452Z,25.63
2019-01-24T07:14:20.151Z,25.97
2019-01-24T07:17:23.537Z,24.33
2019-01-24T07:20:26.918Z,23.70
2019-01-24T07:23:30.370Z,25.53
2019-01-24T07:26:33.746Z,26.17
2019-01-24T07:29:37.136Z,24.80
2019-01-24T07:32:40.525Z,23.33
2019-01-24T07:35:43.900Z,24.47
2019-01-24T07:38:47.287Z,22.93
2019-01-24T07:41:50.666Z,22.93
2019-01-24T07:44:54.057Z,24.37
2019-01-24T07:47:57.446Z,23.37
2019-01-24T07:51:00.855Z,22.90
2019-01-24T07:57:33.829Z,21.37
2019-01-24T08:00:37.606Z,24.37
2019-01-24T08:03:40.994Z,23.57
2019-01-24T08:06:44.369Z,22.90
2019-01-24T08:09:47.762Z,22.80
2019-01-24T08:12:51.211Z,22.93
2019-01-24T08:15:54.609Z,22.70
2019-01-24T08:18:58.019Z,23.83
2019-01-24T08:22:01.403Z,23.87
2019-01-24T08:25:44.717Z,22.60
2019-01-24T08:28:48.100Z,23.37
2019-01-24T08:31:51.483Z,22.30
2019-01-24T08:34:54.864Z,23.50
2019-01-24T08:37:58.487Z,22.17
2019-01-24T08:41:01.867Z,24.33
2019-01-24T08:44:05.397Z,24.83
2019-01-24T08:47:08.767Z,23.10
2019-01-24T08:50:52.062Z,22.17
2019-01-24T08:53:55.438Z,24.30
2019-01-24T08:56:58.831Z,26.13
2019-01-24T09:00:02.216Z,24.87
2019-01-24T09:03:06.045Z,27.27
2019-01-24T09:06:09.430Z,26.60
2019-01-24T09:09:12.889Z,28.37
2019-01-24T09:12:16.282Z,29.00
2019-01-24T09:15:19.727Z,25.97
2019-01-24T09:18:23.171Z,27.90
2019-01-24T09:21:26.644Z,28.63
2019-01-24T09:24:30.024Z,26.27
2019-01-24T09:27:33.478Z,28.67
2019-01-24T09:30:36.853Z,28.33
2019-01-24T09:33:40.250Z,28.13
2019-01-24T09:36:43.637Z,27.73
2019-01-24T09:39:47.019Z,27.13
2019-01-24T09:42:50.490Z,29.17
2019-01-24T09:45:53.870Z,29.23
2019-01-24T09:48:57.246Z,27.90
2019-01-24T09:52:00.632Z,28.23
2019-01-24T09:55:24.812Z,27.17
2019-01-24T09:58:28.283Z,29.83
2019-01-24T10:01:31.708Z,28.53
2019-01-24T10:04:54.495Z,28.17
2019-01-24T10:07:57.955Z,26.83
2019-01-24T10:11:23.579Z,29.10
2019-01-24T10:14:25.781Z,29.77
2019-01-24T10:17:49.275Z,29.43
2019-01-24T10:20:52.690Z,29.10
2019-01-24T10:23:56.366Z,32.00
2019-01-24T10:26:59.736Z,31.23
2019-01-24T10:30:23.434Z,28.80
2019-01-24T10:33:26.817Z,28.63
2019-01-24T10:36:49.530Z,30.87
2019-01-24T10:39:52.914Z,30.87
2019-01-24T10:43:36.206Z,30.93
2019-01-24T10:46:39.599Z,29.47
2019-01-24T10:49:43.035Z,30.47
2019-01-24T10:52:46.481Z,30.73
2019-01-24T10:55:49.870Z,32.07
2019-01-24T10:58:53.262Z,30.20
2019-01-24T11:01:56.702Z,31.77
2019-01-24T11:05:00.186Z,30.97
2019-01-24T11:11:46.622Z,30.83
2019-01-24T11:14:50.015Z,30.70
2019-01-24T11:17:53.399Z,32.13
2019-01-24T11:20:56.787Z,33.43
2019-01-24T11:24:00.160Z,33.30
2019-01-24T11:27:03.547Z,32.93
2019-01-24T11:30:46.849Z,31.37
2019-01-24T11:33:50.216Z,29.33
2019-01-24T11:36:57.148Z,32.10
2019-01-24T11:39:58.722Z,31.87
2019-01-24T11:43:02.213Z,33.57
2019-01-24T11:46:05.702Z,32.03
2019-01-24T11:49:09.075Z,31.87
2019-01-24T11:52:12.741Z,32.27
2019-01-24T11:55:56.033Z,30.70
2019-01-24T11:58:59.677Z,30.73
2019-01-24T12:02:03.058Z,30.80
2019-01-24T12:05:46.343Z,29.87
2019-01-24T12:08:49.732Z,29.87
2019-01-24T12:11:53.123Z,31.13
2019-01-24T12:15:36.474Z,30.80
2019-01-24T12:18:39.868Z,31.57
2019-01-24T12:21:43.243Z,31.13
2019-01-24T12:24:58.676Z,32.77
2019-01-24T12:28:02.063Z,31.10
2019-01-24T12:31:05.449Z,33.10
2019-01-24T12:34:08.839Z,31.27
2019-01-24T12:37:12.284Z,32.60
2019-01-24T12:40:15.744Z,32.33
2019-01-24T12:43:19.123Z,31.67
2019-01-24T12:46:22.496Z,31.63
2019-01-24T12:49:26.063Z,33.30
2019-01-24T12:52:29.455Z,31.63
2019-01-24T12:55:32.848Z,30.47
2019-01-24T12:58:36.232Z,27.57
2019-01-24T13:01:39.604Z,31.37
2019-01-24T13:04:43.013Z,32.23
2019-01-24T13:07:46.389Z,32.67
2019-01-24T13:10:49.774Z,34.80
2019-01-24T13:13:53.163Z,34.57
2019-01-24T13:16:56.562Z,33.70
2019-01-24T13:19:59.941Z,32.43
2019-01-24T13:23:03.597Z,34.03
2019-01-24T13:26:07.056Z,31.57
2019-01-24T13:29:10.445Z,30.43
2019-01-24T13:32:13.853Z,31.80
2019-01-24T13:35:19.371Z,31.20
2019-01-24T13:38:22.743Z,30.07
2019-01-24T13:41:26.154Z,28.87
2019-01-24T13:44:29.532Z,29.33
2019-01-24T13:47:32.967Z,29.80
2019-01-24T13:50:36.569Z,29.57
2019-01-24T13:53:39.936Z,30.20
2019-01-24T13:56:43.323Z,31.40
2019-01-24T13:59:46.703Z,30.17
2019-01-24T14:02:53.302Z,28.73
2019-01-24T14:05:56.697Z,30.23
2019-01-24T14:09:00.074Z,31.30
2019-01-24T14:12:03.455Z,30.77
2019-01-24T14:15:09.880Z,31.73
2019-01-24T14:18:13.275Z,30.10
2019-01-24T14:21:16.663Z,30.53
2019-01-24T14:24:20.051Z,29.90
2019-01-24T14:27:23.433Z,30.17
2019-01-24T14:30:28.446Z,30.00
2019-01-24T14:33:31.841Z,31.10
2019-01-24T14:36:35.231Z,28.73
2019-01-24T14:39:38.604Z,30.20
2019-01-24T14:42:42.164Z,31.60
2019-01-24T14:45:45.538Z,29.87
2019-01-24T14:48:48.930Z,29.00
2019-01-24T14:51:52.313Z,29.37
2019-01-24T14:54:55.700Z,28.73
2019-01-24T14:57:59.094Z,30.00
2019-01-24T15:01:04.551Z,31.07
2019-01-24T15:04:07.938Z,29.37
2019-01-24T15:07:11.405Z,28.90
2019-01-24T15:10:21.145Z,29.33
2019-01-24T15:13:34.758Z,27.47
2019-01-24T15:16:44.196Z,29.07
2019-01-24T15:19:47.568Z,30.63
2019-01-24T15:22:59.199Z,30.77
2019-01-24T15:26:08.422Z,29.10
2019-01-24T15:29:14.797Z,29.07
2019-01-24T15:32:18.185Z,30.97
2019-01-24T15:35:21.705Z,31.23
2019-01-24T15:38:25.105Z,31.30
2019-01-24T15:41:28.485Z,31.27
2019-01-24T15:44:31.871Z,31.37
2019-01-24T15:47:35.413Z,32.37
2019-01-24T15:50:48.100Z,30.87
2019-01-24T15:54:00.528Z,28.77
2019-01-24T15:57:13.035Z,32.17
2019-01-24T16:00:26.725Z,32.83
2019-01-24T16:03:38.079Z,31.40
2019-01-24T16:06:41.462Z,30.97
2019-01-24T16:09:45.302Z,32.47
2019-01-24T16:12:50.381Z,33.30
2019-01-24T16:15:55.806Z,32.33
2019-01-24T16:18:59.210Z,32.17
2019-01-24T16:22:02.714Z,32.73
2019-01-24T16:25:09.437Z,32.33
2019-01-24T16:28:12.889Z,30.97
2019-01-24T16:31:16.290Z,30.80
2019-01-24T16:34:19.689Z,30.90
2019-01-24T16:37:25.698Z,31.77
2019-01-24T16:40:30.254Z,31.47
2019-01-24T16:43:35.577Z,31.73
2019-01-24T16:46:39.896Z,31.73
2019-01-24T16:49:43.273Z,32.80
2019-01-24T16:52:46.731Z,31.07
2019-01-24T16:55:51.054Z,31.87
2019-01-24T16:58:55.408Z,33.57
2019-01-24T17:01:58.798Z,30.70
2019-01-24T17:05:03.291Z,31.70
2019-01-24T17:08:07.345Z,32.97
2019-01-24T17:11:10.712Z,30.57
2019-01-24T17:14:22.286Z,33.63
2019-01-24T17:17:23.194Z,31.73
2019-01-24T17:20:32.598Z,32.90
2019-01-24T17:23:35.985Z,33.90
2019-01-24T17:26:39.373Z,31.50
2019-01-24T17:29:42.759Z,31.47
2019-01-24T17:32:46.405Z,32.37
2019-01-24T17:35:49.779Z,33.37
2019-01-24T17:38:53.171Z,31.90
2019-01-24T17:41:56.557Z,31.83
2019-01-24T17:45:11.435Z,31.47
2019-01-24T17:48:14.832Z,30.20
2019-01-24T17:51:18.209Z,31.70
2019-01-24T17:54:21.589Z,31.70
2019-01-24T17:57:24.981Z,31.37
2019-01-24T18:00:34.997Z,31.53
2019-01-24T18:03:44.215Z,33.13
2019-01-24T18:06:47.848Z,33.03
2019-01-24T18:10:14.150Z,31.67
2019-01-24T18:13:15.669Z,31.33
2019-01-24T18:16:28.138Z,30.93
2019-01-24T18:19:31.514Z,30.83
2019-01-24T18:22:34.905Z,30.30
2019-01-24T18:25:38.357Z,29.20
2019-01-24T18:28:43.674Z,30.07
2019-01-24T18:31:57.136Z,30.00
2019-01-24T18:35:07.917Z,31.17
2019-01-24T18:38:11.344Z,31.83
2019-01-24T18:41:25.656Z,32.93
2019-01-24T18:44:29.029Z,31.10
2019-01-24T18:47:32.434Z,33.37
2019-01-24T18:50:35.932Z,32.00
2019-01-24T18:53:39.330Z,32.77
2019-01-24T18:56:42.768Z,31.87
2019-01-24T18:59:46.165Z,32.87
2019-01-24T19:02:49.553Z,35.23
2019-01-24T19:05:52.948Z,32.30
2019-01-24T19:09:15.764Z,31.90
2019-01-24T19:12:20.926Z,32.60
2019-01-24T19:15:45.106Z,31.80
2019-01-24T19:18:48.734Z,32.40
2019-01-24T19:21:52.165Z,34.93
2019-01-24T19:25:34.123Z,35.33
2019-01-24T19:28:37.521Z,34.00
2019-01-24T19:31:40.893Z,34.70
2019-01-24T19:34:44.284Z,32.67
2019-01-24T19:37:47.740Z,32.23
2019-01-24T19:40:51.121Z,32.63
2019-01-24T19:43:54.537Z,33.10
2019-01-24T19:46:57.921Z,32.63
2019-01-24T19:50:01.310Z,33.50
2019-01-24T19:53:25.657Z,32.63
2019-01-24T19:56:29.034Z,32.80
2019-01-24T19:59:32.436Z,33.07
2019-01-24T20:02:35.829Z,32.73
2019-01-24T20:05:39.223Z,33.20
2019-01-24T20:08:42.595Z,33.83
2019-01-24T20:11:45.972Z,33.47
2019-01-24T20:14:49.626Z,32.30
2019-01-24T20:17:53.062Z,32.27
2019-01-24T20:20:56.531Z,32.60
2019-01-24T20:23:59.923Z,32.87
2019-01-24T20:27:03.320Z,31.97
2019-01-24T20:30:26.933Z,32.90
2019-01-24T20:33:30.315Z,32.43
2019-01-24T20:36:33.697Z,35.03
2019-01-24T20:39:37.104Z,31.30
2019-01-24T20:42:40.502Z,31.83
2019-01-24T20:45:43.940Z,31.37
2019-01-24T20:48:47.336Z,32.03
2019-01-24T20:51:50.726Z,33.97
2019-01-24T20:54:54.109Z,34.23
2019-01-24T20:57:57.504Z,34.43
2019-01-24T21:01:01.155Z,33.10
2019-01-24T21:04:23.948Z,31.80
2019-01-24T21:07:27.343Z,31.57
2019-01-24T21:10:50.070Z,31.23
2019-01-24T21:14:05.241Z,31.93
2019-01-24T21:17:08.634Z,31.20
2019-01-24T21:20:32.114Z,32.63
2019-01-24T21:23:35.514Z,35.73
2019-01-24T21:26:38.887Z,35.17
2019-01-24T21:29:42.309Z,34.20
2019-01-24T21:32:45.773Z,33.87
2019-01-24T21:36:08.494Z,33.40
2019-01-24T21:39:11.879Z,34.07
2019-01-24T21:42:34.612Z,33.50
2019-01-24T21:45:58.779Z,31.33
2019-01-24T21:49:02.175Z,34.40
2019-01-24T21:52:05.689Z,34.73
2019-01-24T21:55:48.994Z,36.43
2019-01-24T21:58:52.394Z,34.87
2019-01-24T22:01:55.784Z,32.43
2019-01-24T22:04:59.195Z,32.57
2019-01-24T22:08:02.589Z,31.50
2019-01-24T22:11:18.315Z,30.77
2019-01-24T22:14:21.706Z,33.40
2019-01-24T22:17:25.109Z,33.83
2019-01-24T22:20:28.553Z,32.63
2019-01-24T22:23:32.856Z,32.33
2019-01-24T22:26:36.246Z,33.83
2019-01-24T22:29:39.642Z,33.83
2019-01-24T22:32:43.021Z,34.57
2019-01-24T22:35:46.650Z,34.17
2019-01-24T22:38:50.030Z,31.90
2019-01-24T22:41:53.424Z,33.10
2019-01-24T22:44:56.808Z,32.83
2019-01-24T22:48:00.443Z,33.10
2019-01-24T22:54:33.757Z,31.90
2019-01-24T22:57:37.146Z,30.77
2019-01-24T23:01:20.518Z,33.60
2019-01-24T23:04:23.975Z,32.90
2019-01-24T23:07:46.691Z,34.37
2019-01-24T23:10:50.078Z,33.30
2019-01-24T23:13:53.466Z,32.53
2019-01-24T23:16:57.094Z,32.73
2019-01-24T23:20:00.473Z,33.43
2019-01-24T23:26:33.963Z,32.60
2019-01-24T23:29:37.339Z,34.17
2019-01-24T23:32:40.724Z,31.07
2019-01-24T23:35:44.186Z,31.93
2019-01-24T23:38:47.575Z,31.80
2019-01-24T23:41:50.945Z,32.33
2019-01-24T23:44:54.338Z,33.53
2019-01-24T23:47:57.723Z,32.17
2019-01-24T23:51:01.106Z,30.70
2019-01-24T23:54:04.710Z,34.07
2019-01-24T23:57:08.105Z,33.47
